Time;durP1;ratioP1;P1;durP2;ratioP2;P2;SDS_P1;SDS_P2;PMS_P1;PMS_P2;Temp;Humidity;BMP_temperature;BMP_pressure;BME280_temperature;BME280_humidity;BME280_pressure;Samples;Min_cycle;Max_cycle;Signal;HPM_P1;HPM_P2
2022/12/03 00:00:31;;;;;;;30.95;11.38;;;;;;;1.12;88.38;102253.38;5027871;28;20142;-71
2022/12/03 00:02:56;;;;;;;26.67;10.73;;;;;;;1.13;87.89;102257.84;5042994;28;20492;-70
2022/12/03 00:05:21;;;;;;;28.50;11.90;;;;;;;1.11;88.30;102245.34;5046650;28;20492;-70
2022/12/03 00:07:47;;;;;;;29.88;11.50;;;;;;;1.12;88.45;102248.03;5042244;28;20032;-70
2022/12/03 00:10:12;;;;;;;29.25;12.02;;;;;;;1.12;88.52;102242.66;5030198;28;20112;-70
2022/12/03 00:12:37;;;;;;;28.80;12.18;;;;;;;1.13;88.83;102247.09;5028385;28;20429;-70
2022/12/03 00:15:04;;;;;;;27.25;11.40;;;;;;;1.15;88.39;102252.44;5029799;28;20052;-70
2022/12/03 00:17:30;;;;;;;31.65;12.38;;;;;;;1.15;88.24;102247.09;5020224;28;20021;-71
2022/12/03 00:19:56;;;;;;;28.42;11.95;;;;;;;1.16;88.29;102246.16;5028674;28;20025;-70
2022/12/03 00:22:21;;;;;;;33.55;12.35;;;;;;;1.16;88.12;102238.13;5010077;28;20044;-70
2022/12/03 00:24:46;;;;;;;32.63;13.10;;;;;;;1.15;88.60;102236.38;5012086;28;20037;-71
2022/12/03 00:27:12;;;;;;;25.73;12.32;;;;;;;1.18;87.71;102241.69;5027785;28;20032;-69
2022/12/03 00:29:37;;;;;;;30.58;12.52;;;;;;;1.15;88.53;102231.00;5011546;28;20055;-71
2022/12/03 00:32:02;;;;;;;31.45;12.18;;;;;;;1.14;88.14;102232.81;5028429;28;20103;-71
2022/12/03 00:34:28;;;;;;;26.98;11.55;;;;;;;1.15;88.13;102226.53;5028150;28;20037;-71
2022/12/03 00:36:53;;;;;;;30.70;11.65;;;;;;;1.13;88.51;102223.00;5027774;28;20037;-70
2022/12/03 00:39:18;;;;;;;33.42;12.82;;;;;;;1.17;88.50;102231.88;5010522;28;20108;-70
2022/12/03 00:41:44;;;;;;;26.98;11.73;;;;;;;1.17;88.21;102226.53;5009498;28;20084;-71
2022/12/03 00:44:10;;;;;;;29.00;11.65;;;;;;;1.17;88.61;102223.84;5026523;28;20095;-70
2022/12/03 00:46:36;;;;;;;21.50;10.30;;;;;;;1.20;87.99;102235.41;5027573;28;20033;-70
2022/12/03 00:49:01;;;;;;;27.65;13.65;;;;;;;1.18;88.13;102225.63;5025982;28;20043;-70
2022/12/03 00:51:26;;;;;;;29.88;11.48;;;;;;;1.14;88.02;102213.16;5026754;28;20043;-71
2022/12/03 00:53:52;;;;;;;30.85;12.70;;;;;;;1.18;88.44;102217.56;5027733;28;20024;-71
2022/12/03 00:56:17;;;;;;;28.63;11.45;;;;;;;1.19;88.47;102227.38;5027275;28;20124;-71
2022/12/03 00:58:42;;;;;;;31.55;12.35;;;;;;;1.18;88.23;102223.81;5008125;28;20037;-70
2022/12/03 01:01:08;;;;;;;32.10;14.07;;;;;;;1.19;88.16;102230.94;5013615;28;20086;-70
2022/12/03 01:03:33;;;;;;;33.10;15.00;;;;;;;1.22;87.80;102225.56;5047176;28;20036;-71
2022/12/03 01:05:59;;;;;;;34.92;13.55;;;;;;;1.19;88.44;102225.59;5046704;28;20064;-71
2022/12/03 01:08:24;;;;;;;31.25;14.57;;;;;;;1.21;88.18;102228.25;5042696;28;20124;-71
2022/12/03 01:10:49;;;;;;;29.17;13.25;;;;;;;1.19;88.58;102224.72;5009372;28;20144;-71
2022/12/03 01:13:15;;;;;;;27.52;11.88;;;;;;;1.19;87.82;102228.28;5009223;28;20157;-70
2022/12/03 01:15:40;;;;;;;30.73;12.20;;;;;;;1.20;88.56;102224.69;5010297;28;20032;-70
2022/12/03 01:18:05;;;;;;;35.75;13.98;;;;;;;1.21;88.30;102222.88;5027213;28;20021;-70
2022/12/03 01:20:31;;;;;;;32.60;13.63;;;;;;;1.20;89.11;102218.44;5026258;28;20163;-71
2022/12/03 01:22:56;;;;;;;35.08;13.60;;;;;;;1.20;88.49;102215.75;5043464;28;20546;-71
2022/12/03 01:25:22;;;;;;;37.67;13.88;;;;;;;1.20;88.49;102221.13;5024920;28;20422;-71
2022/12/03 01:27:49;;;;;;;40.00;15.60;;;;;;;1.18;88.40;102218.47;5006972;28;20278;-72
2022/12/03 01:30:14;;;;;;;35.80;15.25;;;;;;;1.22;88.03;102230.03;5024815;28;20402;-71
2022/12/03 01:32:40;;;;;;;36.35;13.57;;;;;;;1.21;88.55;102223.81;5006876;28;20041;-70
2022/12/03 01:35:05;;;;;;;40.33;14.02;;;;;;;1.18;88.68;102218.47;5024846;28;20246;-70
2022/12/03 01:37:30;;;;;;;33.50;14.18;;;;;;;1.21;88.87;102221.13;5037526;28;20029;-70
2022/12/03 01:39:56;;;;;;;33.53;14.20;;;;;;;1.20;88.63;102216.63;5025031;28;20069;-71
2022/12/03 01:42:27;;;;;;;34.88;13.88;;;;;;;1.21;88.74;102220.19;5005620;28;20052;-71
2022/12/03 01:44:56;;;;;;;39.88;14.68;;;;;;;1.24;88.83;102225.53;5024909;28;20068;-71
2022/12/03 01:47:27;;;;;;;39.28;15.52;;;;;;;1.23;88.70;102218.41;5024358;28;20108;-73
2022/12/03 01:50:00;;;;;;;32.20;14.30;;;;;;;1.22;88.25;102219.31;5024433;28;20048;-70
2022/12/03 01:52:30;;;;;;;41.22;14.50;;;;;;;1.21;88.50;102212.16;5025069;28;20067;-70
2022/12/03 01:55:01;;;;;;;35.75;14.52;;;;;;;1.21;88.61;102206.81;5005690;28;20468;-70
2022/12/03 01:57:31;;;;;;;32.92;15.90;;;;;;;1.22;88.83;102212.16;5005713;28;20437;-70
2022/12/03 01:59:58;;;;;;;39.45;15.75;;;;;;;1.20;88.58;102210.38;5024848;28;20625;-70
2022/12/03 02:02:27;;;;;;;35.03;14.02;;;;;;;1.21;88.39;102212.16;5024255;28;20048;-70
2022/12/03 02:04:53;;;;;;;38.17;14.98;;;;;;;1.20;88.90;102202.34;5024429;28;20433;-71
2022/12/03 02:07:26;;;;;;;40.65;15.68;;;;;;;1.20;88.84;102205.91;5029667;28;20041;-71
2022/12/03 02:09:53;;;;;;;39.80;15.13;;;;;;;1.21;88.60;102205.03;5016845;28;20113;-71
2022/12/03 02:12:26;;;;;;;35.55;14.90;;;;;;;1.18;89.36;102204.19;5022878;28;20047;-70
2022/12/03 02:14:53;;;;;;;40.55;14.95;;;;;;;1.20;89.29;102208.59;5025991;28;20579;-70
2022/12/03 02:17:18;;;;;;;35.03;14.32;;;;;;;1.18;88.93;102210.41;5028451;28;20029;-70
2022/12/03 02:19:44;;;;;;;36.08;14.75;;;;;;;1.20;89.24;102210.38;5016253;28;20067;-70
2022/12/03 02:22:24;;;;;;;36.92;15.88;;;;;;;1.23;88.78;102208.56;5009867;28;20041;-70
2022/12/03 02:25:24;;;;;;;41.05;15.75;;;;;;;1.23;88.89;102202.31;5008632;28;20068;-70
2022/12/03 02:27:52;;;;;;;36.47;15.05;;;;;;;1.20;89.15;102202.34;5009199;28;20072;-70
2022/12/03 02:30:21;;;;;;;38.88;15.38;;;;;;;1.20;88.57;102197.00;5038092;28;20035;-71
2022/12/03 02:32:47;;;;;;;42.97;15.20;;;;;;;1.17;88.76;102197.94;5027648;28;20421;-69
2022/12/03 02:35:18;;;;;;;42.83;16.95;;;;;;;1.20;88.90;102203.22;5027356;28;20037;-71
2022/12/03 02:37:46;;;;;;;31.25;13.77;;;;;;;1.18;89.00;102194.34;5009791;28;20144;-70
2022/12/03 02:40:17;;;;;;;40.22;16.73;;;;;;;1.18;89.38;102191.66;5028264;28;20032;-70
2022/12/03 02:42:44;;;;;;;38.08;15.27;;;;;;;1.17;89.21;102192.56;5010017;28;20041;-69
2022/12/03 02:45:17;;;;;;;35.97;13.55;;;;;;;1.18;88.74;102191.66;5013666;28;20130;-71
2022/12/03 02:47:51;;;;;;;39.10;15.93;;;;;;;1.17;88.69;102192.56;5027446;28;20087;-70
2022/12/03 02:50:22;;;;;;;35.53;15.23;;;;;;;1.17;88.61;102200.63;5027332;28;20492;-71
2022/12/03 02:52:49;;;;;;;36.95;14.38;;;;;;;1.15;89.40;102188.13;5008902;28;20043;-70
2022/12/03 02:55:16;;;;;;;39.15;15.38;;;;;;;1.16;89.50;102190.78;5009663;28;20056;-72
2022/12/03 02:57:45;;;;;;;29.00;12.13;;;;;;;1.20;89.03;102191.63;5027165;28;20090;-70
2022/12/03 03:00:11;;;;;;;35.17;15.10;;;;;;;1.17;89.12;102189.88;5008751;28;20191;-70
2022/12/03 03:02:39;;;;;;;38.58;13.63;;;;;;;1.16;89.10;102192.56;5027448;28;20141;-71
2022/12/03 03:05:05;;;;;;;33.30;14.15;;;;;;;1.16;89.16;102193.44;5009551;28;20072;-70
2022/12/03 03:07:31;;;;;;;39.17;14.73;;;;;;;1.16;89.23;102192.56;5025007;28;20036;-70
2022/12/03 03:09:58;;;;;;;32.25;13.32;;;;;;;1.18;89.32;102185.41;5026878;28;20044;-70
2022/12/03 03:12:23;;;;;;;34.03;13.73;;;;;;;1.16;88.86;102185.41;5026734;28;20128;-71
2022/12/03 03:14:48;;;;;;;34.17;14.85;;;;;;;1.17;89.06;102175.59;5027627;28;20124;-70
2022/12/03 03:17:14;;;;;;;36.90;14.23;;;;;;;1.18;88.59;102175.59;5009060;28;20040;-70
2022/12/03 03:19:39;;;;;;;42.45;15.15;;;;;;;1.14;89.65;102178.31;5027823;28;20037;-70
2022/12/03 03:22:04;;;;;;;32.08;13.98;;;;;;;1.15;89.28;102180.97;5026631;28;20496;-70
2022/12/03 03:24:31;;;;;;;38.60;15.02;;;;;;;1.13;89.09;102177.44;5010454;28;20124;-71
2022/12/03 03:26:56;;;;;;;40.50;16.38;;;;;;;1.16;89.14;102169.34;5026003;28;20678;-70
2022/12/03 03:29:22;;;;;;;40.90;15.18;;;;;;;1.14;89.46;102173.84;5009711;28;20179;-70
2022/12/03 03:31:47;;;;;;;36.45;14.98;;;;;;;1.14;89.32;102173.84;5009056;28;20472;-71
2022/12/03 03:34:14;;;;;;;37.50;15.60;;;;;;;1.15;89.22;102172.03;5008886;28;20040;-70
2022/12/03 03:36:40;;;;;;;35.65;14.40;;;;;;;1.13;90.08;102168.50;5028520;28;20436;-70
2022/12/03 03:39:05;;;;;;;39.33;15.13;;;;;;;1.14;89.40;102171.16;5020792;28;20038;-70
2022/12/03 03:41:32;;;;;;;37.10;15.38;;;;;;;1.17;89.25;102159.53;5012656;28;20044;-71
2022/12/03 03:43:58;;;;;;;37.38;15.40;;;;;;;1.13;89.57;102156.00;5026458;28;20499;-70
2022/12/03 03:46:23;;;;;;;36.28;14.20;;;;;;;1.13;89.57;102158.66;5026847;28;20461;-71
2022/12/03 03:48:50;;;;;;;34.38;14.95;;;;;;;1.13;89.62;102161.34;5008303;28;20037;-70
2022/12/03 03:51:17;;;;;;;36.95;15.75;;;;;;;1.15;89.68;102153.28;4992123;28;20025;-70
2022/12/03 03:53:46;;;;;;;32.63;15.10;;;;;;;1.14;89.27;102155.06;5022617;28;20484;-70
2022/12/03 03:56:14;;;;;;;36.20;15.15;;;;;;;1.15;89.06;102151.47;5008118;28;20064;-70
2022/12/03 03:58:40;;;;;;;42.50;17.25;;;;;;;1.16;89.01;102165.75;5026232;28;20069;-70
2022/12/03 04:01:07;;;;;;;37.00;15.90;;;;;;;1.13;89.90;102157.78;5026830;28;20115;-70
2022/12/03 04:03:33;;;;;;;40.78;16.63;;;;;;;1.14;89.71;102154.19;5025348;28;20433;-71
2022/12/03 04:05:58;;;;;;;35.55;16.25;;;;;;;1.12;89.70;102154.22;5026380;28;20137;-71
2022/12/03 04:08:24;;;;;;;43.58;17.52;;;;;;;1.12;90.03;102146.19;5008815;28;20108;-71
2022/12/03 04:13:33;;;;;;;39.53;15.05;;;;;;;1.14;90.40;102155.06;5027651;28;20104;-70
2022/12/03 04:15:59;;;;;;;37.53;14.20;;;;;;;1.14;90.13;102151.50;5011703;28;20125;-71
2022/12/03 04:18:42;;;;;;;39.33;15.98;;;;;;;1.14;89.82;102146.16;5026810;28;20033;-70
2022/12/03 04:23:57;;;;;;;38.58;14.77;;;;;;;1.14;90.00;102140.78;5026123;28;20037;-70
2022/12/03 04:29:07;;;;;;;37.10;15.68;;;;;;;1.15;89.75;102154.16;5026587;28;20040;-71
2022/12/03 04:37:00;;;;;;;38.28;14.90;;;;;;;1.13;90.14;102141.72;5029667;28;20199;-69
2022/12/03 04:39:25;;;;;;;34.10;15.27;;;;;;;1.12;90.07;102147.94;5030745;28;20510;-70
2022/12/03 04:41:51;;;;;;;31.55;14.57;;;;;;;1.14;89.88;102149.72;5029087;28;20060;-69
2022/12/03 04:44:35;;;;;;;38.90;14.73;;;;;;;1.12;89.94;102145.25;5028181;28;20037;-70
2022/12/03 04:47:02;;;;;;;34.92;14.85;;;;;;;1.13;90.19;102144.38;5029922;28;20068;-70
2022/12/03 04:49:28;;;;;;;35.85;14.98;;;;;;;1.15;89.92;102140.75;5016182;28;20028;-70
2022/12/03 04:51:53;;;;;;;35.72;14.48;;;;;;;1.14;89.73;102146.16;5031372;28;20033;-70
2022/12/03 04:54:20;;;;;;;42.22;16.13;;;;;;;1.12;89.69;102140.81;5021987;28;20123;-69
2022/12/03 04:56:45;;;;;;;42.50;16.17;;;;;;;1.12;90.10;102137.22;5028417;28;20061;-69
2022/12/03 04:59:10;;;;;;;38.50;14.70;;;;;;;1.14;89.86;102138.13;5029589;28;20064;-70
2022/12/03 05:01:36;;;;;;;37.92;16.92;;;;;;;1.13;90.46;102136.34;5020361;28;20032;-69
2022/12/03 05:04:01;;;;;;;40.83;16.90;;;;;;;1.13;90.04;102139.03;5049366;28;20041;-69
2022/12/03 05:06:27;;;;;;;41.20;17.10;;;;;;;1.14;90.28;102130.97;5031979;28;20102;-69
2022/12/03 05:08:52;;;;;;;48.50;16.38;;;;;;;1.13;90.50;102133.66;5017471;28;20029;-70
2022/12/03 05:11:17;;;;;;;38.08;16.27;;;;;;;1.14;90.41;102135.44;5029446;28;20176;-70
2022/12/03 05:13:43;;;;;;;43.47;16.80;;;;;;;1.14;90.48;102130.06;5024165;28;20056;-69
2022/12/03 05:16:08;;;;;;;37.70;16.73;;;;;;;1.13;90.42;102131.88;5022321;28;20026;-70
2022/12/03 05:18:33;;;;;;;41.53;17.05;;;;;;;1.13;90.57;102131.00;5029839;28;20053;-70
2022/12/03 05:20:59;;;;;;;41.65;16.45;;;;;;;1.12;90.74;102131.88;5010625;28;20546;-70
2022/12/03 05:23:24;;;;;;;40.17;16.77;;;;;;;1.12;90.96;102123.81;5029085;28;20140;-71
2022/12/03 05:25:50;;;;;;;44.17;18.60;;;;;;;1.13;90.86;102136.34;5028534;28;20065;-69
2022/12/03 05:28:15;;;;;;;37.92;16.00;;;;;;;1.14;90.29;102128.28;5028843;28;20469;-70
2022/12/03 05:30:41;;;;;;;44.42;18.42;;;;;;;1.12;90.69;102131.88;5011016;28;20087;-70
2022/12/03 05:33:06;;;;;;;42.47;17.05;;;;;;;1.12;90.67;102121.16;5030691;28;20352;-71
2022/12/03 05:35:32;;;;;;;41.80;17.05;;;;;;;1.11;91.21;102128.31;5029429;28;20506;-70
2022/12/03 05:37:57;;;;;;;41.58;15.80;;;;;;;1.12;90.71;102126.50;5028876;28;20500;-71
2022/12/03 05:40:22;;;;;;;45.67;17.38;;;;;;;1.10;90.83;102126.53;4994914;28;20076;-70
2022/12/03 05:42:55;;;;;;;39.72;14.90;;;;;;;1.11;90.87;102117.59;5028908;28;20758;-71
2022/12/03 05:45:29;;;;;;;44.33;17.15;;;;;;;1.08;91.07;102123.00;5028209;28;20045;-69
2022/12/03 05:47:55;;;;;;;43.25;17.30;;;;;;;1.06;91.31;102113.19;5010967;28;20048;-69
2022/12/03 05:50:23;;;;;;;46.35;17.15;;;;;;;1.08;91.66;102114.09;5028116;28;20026;-69
2022/12/03 05:52:49;;;;;;;44.85;17.67;;;;;;;1.07;91.34;102115.84;5028977;28;20513;-70
2022/12/03 05:55:15;;;;;;;48.40;18.38;;;;;;;1.08;92.04;102117.66;5010773;28;20116;-71
2022/12/03 05:57:41;;;;;;;48.97;19.08;;;;;;;1.05;92.09;102114.13;5010128;28;20492;-69
2022/12/03 06:00:11;;;;;;;45.42;17.20;;;;;;;1.07;91.94;102115.84;5029334;28;20083;-70
2022/12/03 06:02:37;;;;;;;48.63;19.05;;;;;;;1.06;91.79;102113.19;5028282;28;20049;-71
2022/12/03 06:05:03;;;;;;;44.85;17.67;;;;;;;1.05;92.30;102112.31;5028809;28;20128;-70
2022/12/03 06:07:28;;;;;;;44.65;17.42;;;;;;;1.06;92.25;102116.75;5027759;28;20029;-71
2022/12/03 06:09:54;;;;;;;51.28;18.92;;;;;;;1.06;92.11;102113.19;5010961;28;20049;-71
2022/12/03 06:12:19;;;;;;;41.15;17.20;;;;;;;1.05;91.65;102109.63;5027241;28;20045;-70
2022/12/03 06:14:44;;;;;;;46.55;16.95;;;;;;;1.04;91.95;102110.53;5028426;28;20040;-70
2022/12/03 06:17:09;;;;;;;39.47;15.20;;;;;;;1.01;91.95;102107.91;5027647;28;20456;-69
2022/12/03 06:19:35;;;;;;;45.60;17.35;;;;;;;1.04;91.70;102107.00;5010198;28;20524;-70
2022/12/03 06:22:00;;;;;;;44.70;17.35;;;;;;;1.02;91.74;102110.53;5027812;28;20440;-70
2022/12/03 06:24:26;;;;;;;42.75;14.70;;;;;;;1.04;91.66;102109.66;5028288;28;20219;-69
2022/12/03 06:26:51;;;;;;;41.85;16.02;;;;;;;1.02;91.79;102109.66;5009339;28;20123;-69
2022/12/03 06:29:17;;;;;;;44.45;17.67;;;;;;;1.01;91.53;102106.09;5009858;28;20563;-69
2022/12/03 06:31:42;;;;;;;44.17;18.23;;;;;;;1.03;91.55;102114.13;5027428;28;20033;-69
2022/12/03 06:34:07;;;;;;;45.67;18.25;;;;;;;1.01;91.83;102111.47;5009858;28;20037;-69
2022/12/03 06:36:33;;;;;;;40.67;16.75;;;;;;;1.02;92.06;102115.03;5027450;28;20108;-70
2022/12/03 06:38:58;;;;;;;43.75;17.23;;;;;;;1.03;91.82;102119.50;5037127;28;20130;-69
2022/12/03 06:41:23;;;;;;;45.00;17.55;;;;;;;1.04;91.51;102113.22;5009445;28;20420;-69
2022/12/03 06:43:49;;;;;;;46.03;19.40;;;;;;;1.02;91.71;102112.34;5028648;28;20045;-70
2022/12/03 06:46:14;;;;;;;45.33;16.63;;;;;;;1.02;92.08;102115.91;5008504;28;20445;-69
2022/12/03 06:48:39;;;;;;;51.53;18.00;;;;;;;1.02;91.78;102115.03;5026289;28;20064;-70
2022/12/03 06:51:04;;;;;;;45.30;16.50;;;;;;;1.00;91.87;102103.44;5029307;28;20041;-69
2022/12/03 06:53:30;;;;;;;41.17;16.83;;;;;;;0.97;91.98;102095.44;5026790;28;20500;-69
2022/12/03 06:55:55;;;;;;;46.63;17.30;;;;;;;0.99;92.14;102107.94;5032160;28;20468;-70
2022/12/03 06:58:21;;;;;;;47.90;17.17;;;;;;;0.97;92.18;102098.13;5017470;28;20096;-71
2022/12/03 07:00:46;;;;;;;42.03;17.17;;;;;;;0.98;91.78;102103.47;5035453;28;20140;-69
2022/12/03 07:03:11;;;;;;;33.17;15.13;;;;;;;0.99;91.72;102105.25;5027716;28;20056;-70
2022/12/03 07:05:37;;;;;;;41.03;16.33;;;;;;;0.98;91.94;102099.91;5028072;28;20029;-71
2022/12/03 07:08:02;;;;;;;39.00;16.45;;;;;;;0.98;92.05;102099.91;5045704;28;20041;-70
2022/12/03 07:10:28;;;;;;;40.30;16.52;;;;;;;0.96;91.70;102104.38;5036697;28;20513;-70
2022/12/03 07:12:53;;;;;;;47.10;17.38;;;;;;;0.99;91.43;102107.03;5036027;28;20111;-70
2022/12/03 07:15:18;;;;;;;49.95;16.50;;;;;;;0.98;91.78;102099.91;5027418;28;20033;-70
2022/12/03 07:17:44;;;;;;;43.80;16.77;;;;;;;0.98;92.41;102107.97;5027470;28;20056;-70
2022/12/03 07:20:09;;;;;;;46.05;16.77;;;;;;;0.95;91.97;102098.16;5026898;28;20243;-69
2022/12/03 07:22:35;;;;;;;43.38;16.75;;;;;;;0.97;92.04;102104.34;5027203;28;20026;-69
2022/12/03 07:25:00;;;;;;;43.80;17.83;;;;;;;0.98;91.52;102102.59;4994472;28;20132;-70
2022/12/03 07:27:25;;;;;;;44.45;16.73;;;;;;;0.94;91.79;102093.69;5008149;28;20115;-69
2022/12/03 07:29:51;;;;;;;44.97;17.38;;;;;;;0.97;91.63;102099.00;5009078;28;20395;-71
2022/12/03 07:32:16;;;;;;;36.97;15.57;;;;;;;0.98;91.38;102094.56;5008547;28;20025;-70
2022/12/03 07:34:42;;;;;;;50.05;17.55;;;;;;;0.98;91.20;102102.59;5017162;28;20059;-70
2022/12/03 07:37:07;;;;;;;36.95;15.77;;;;;;;0.98;92.05;102099.91;5009909;28;20051;-70
2022/12/03 07:39:32;;;;;;;44.72;17.75;;;;;;;0.98;91.48;102100.81;5026117;28;20033;-71
2022/12/03 07:42:00;;;;;;;40.22;15.68;;;;;;;0.99;91.54;102099.00;5014794;28;20029;-72
2022/12/03 07:44:27;;;;;;;41.05;16.58;;;;;;;0.99;91.48;102102.56;5025892;28;20047;-70
2022/12/03 07:46:52;;;;;;;43.35;15.90;;;;;;;1.00;91.67;102107.00;5008294;28;20044;-70
2022/12/03 07:49:18;;;;;;;39.63;15.77;;;;;;;0.99;91.59;102094.53;5026910;28;20224;-70
2022/12/03 07:51:52;;;;;;;43.10;15.75;;;;;;;0.99;91.69;102105.25;5008292;28;20030;-70
2022/12/03 07:54:18;;;;;;;39.75;15.18;;;;;;;1.01;91.61;102108.78;5009045;28;20371;-70
2022/12/03 07:56:46;;;;;;;34.13;15.68;;;;;;;1.01;91.20;102106.09;5044998;28;20025;-70
2022/12/03 07:59:12;;;;;;;32.80;14.45;;;;;;;1.03;91.45;102106.09;5024548;28;20037;-69
2022/12/03 08:01:37;;;;;;;39.97;15.85;;;;;;;1.04;91.75;102113.22;5007383;28;20473;-71
2022/12/03 08:04:02;;;;;;;38.30;14.95;;;;;;;1.05;91.48;102108.75;5010335;28;20045;-69
2022/12/03 08:06:28;;;;;;;40.38;15.18;;;;;;;1.07;90.92;102098.88;5025207;28;20388;-70
2022/12/03 08:08:53;;;;;;;36.55;14.88;;;;;;;1.07;90.86;102102.44;5012393;28;20107;-70
2022/12/03 08:11:18;;;;;;;41.70;15.23;;;;;;;1.08;90.84;102111.41;5029676;28;20091;-70
2022/12/03 08:13:44;;;;;;;36.70;15.40;;;;;;;1.07;91.00;102113.16;5030027;28;20091;-70
2022/12/03 08:16:20;;;;;;;40.70;15.98;;;;;;;1.09;91.03;102110.50;5030934;28;20037;-70
2022/12/03 08:18:46;;;;;;;33.28;15.15;;;;;;;1.09;90.93;102111.38;5045789;28;20135;-69
2022/12/03 08:21:14;;;;;;;40.90;15.00;;;;;;;1.10;90.95;102117.63;5028356;28;20446;-70
2022/12/03 08:23:40;;;;;;;37.75;14.50;;;;;;;1.12;90.35;102113.09;5030013;28;20037;-69
2022/12/03 08:26:24;;;;;;;36.67;14.68;;;;;;;1.11;90.48;102111.34;5023725;28;20025;-69
2022/12/03 08:28:51;;;;;;;37.75;14.27;;;;;;;1.11;91.00;102114.91;5039874;28;20055;-69
2022/12/03 08:31:22;;;;;;;44.05;16.10;;;;;;;1.11;90.55;102112.22;5018567;28;20045;-70
2022/12/03 08:33:50;;;;;;;42.53;16.42;;;;;;;1.12;90.18;102110.44;5029154;28;20033;-71
2022/12/03 08:36:29;;;;;;;41.95;16.83;;;;;;;1.11;90.71;102119.38;5011309;28;20121;-70
2022/12/03 08:38:57;;;;;;;43.63;15.85;;;;;;;1.12;90.74;102103.31;5032300;28;20492;-70
2022/12/03 08:44:20;;;;;;;40.28;14.43;;;;;;;1.15;91.06;102113.06;5027333;28;20033;-72
2022/12/03 08:46:51;;;;;;;41.33;15.27;;;;;;;1.17;90.54;102111.28;5027572;28;20108;-71
2022/12/03 08:49:19;;;;;;;36.88;14.77;;;;;;;1.14;90.48;102109.50;5025052;28;20025;-71
2022/12/03 08:51:44;;;;;;;43.97;15.35;;;;;;;1.15;90.78;102108.59;5038435;28;20029;-70
2022/12/03 08:54:17;;;;;;;41.63;16.27;;;;;;;1.12;90.50;102099.72;5049506;28;20105;-70
2022/12/03 08:56:43;;;;;;;40.90;14.70;;;;;;;1.19;91.06;102112.13;5010595;28;20480;-70
2022/12/03 08:59:27;;;;;;;43.40;15.55;;;;;;;1.19;90.48;102101.41;5047356;28;20059;-70
2022/12/03 09:01:53;;;;;;;44.78;14.60;;;;;;;1.17;90.49;102108.59;5038357;28;20037;-69
2022/12/03 09:04:22;;;;;;;42.95;15.50;;;;;;;1.19;90.85;102118.38;5013247;28;20029;-70
2022/12/03 09:06:48;;;;;;;42.58;15.73;;;;;;;1.20;90.56;102112.09;5029830;28;20510;-70
2022/12/03 09:09:14;;;;;;;37.60;15.00;;;;;;;1.25;89.98;102112.94;5027180;28;20064;-71
2022/12/03 09:11:42;;;;;;;52.58;17.40;;;;;;;1.25;90.62;102104.88;5034771;28;20148;-71
2022/12/03 09:14:07;;;;;;;43.83;14.75;;;;;;;1.26;90.64;102106.69;5010281;28;20125;-71
2022/12/03 09:16:33;;;;;;;41.47;15.20;;;;;;;1.26;89.97;102104.00;5046253;28;20436;-71
2022/12/03 09:18:58;;;;;;;39.35;15.05;;;;;;;1.27;89.85;102110.25;5045522;28;20036;-70
2022/12/03 09:21:24;;;;;;;45.53;15.30;;;;;;;1.26;89.75;102113.84;5021568;28;20067;-70
2022/12/03 09:23:49;;;;;;;44.25;15.98;;;;;;;1.23;90.05;102106.72;5043296;28;20141;-70
2022/12/03 09:26:14;;;;;;;37.03;14.88;;;;;;;1.25;89.51;102114.72;5025662;28;20033;-70
2022/12/03 09:28:40;;;;;;;40.00;14.82;;;;;;;1.21;89.72;102108.53;5028365;28;20049;-70
2022/12/03 09:31:06;;;;;;;43.55;16.30;;;;;;;1.23;89.95;102113.88;5027189;28;20033;-70
2022/12/03 09:33:31;;;;;;;42.42;14.63;;;;;;;1.26;89.77;102109.38;5047913;28;20048;-70
2022/12/03 09:35:58;;;;;;;36.75;14.60;;;;;;;1.26;89.44;102108.47;5042246;28;20104;-70
2022/12/03 09:38:23;;;;;;;47.97;15.68;;;;;;;1.24;89.86;102107.59;5030337;28;20040;-70
2022/12/03 09:40:49;;;;;;;44.20;16.67;;;;;;;1.24;89.56;102107.59;5034206;28;20041;-70
2022/12/03 09:43:15;;;;;;;46.88;17.48;;;;;;;1.22;90.02;102102.28;5028807;28;20038;-71
2022/12/03 09:45:44;;;;;;;43.95;16.40;;;;;;;1.20;90.26;102106.75;4997294;28;20041;-71
2022/12/03 09:48:12;;;;;;;45.42;16.00;;;;;;;1.18;89.13;102097.84;5009999;28;20055;-71
2022/12/03 09:50:39;;;;;;;48.97;16.88;;;;;;;1.18;89.40;102094.28;5045156;28;20434;-70
2022/12/03 09:53:05;;;;;;;47.50;16.77;;;;;;;1.19;89.63;102096.94;5030764;28;20038;-70
2022/12/03 09:55:30;;;;;;;45.17;17.30;;;;;;;1.15;88.99;102091.63;5033622;28;20843;-71
2022/12/03 09:57:56;;;;;;;49.47;17.65;;;;;;;1.14;88.74;102090.75;5010401;28;20033;-70
2022/12/03 10:00:24;;;;;;;46.42;16.83;;;;;;;1.13;89.04;102083.63;5028559;28;20033;-70
2022/12/03 10:03:00;;;;;;;44.28;16.00;;;;;;;1.12;88.94;102089.91;5010208;28;20034;-70
2022/12/03 10:05:27;;;;;;;48.67;17.85;;;;;;;1.11;88.75;102087.22;5027694;28;20503;-69
2022/12/03 10:08:01;;;;;;;44.80;15.55;;;;;;;1.10;89.32;102082.78;5028403;28;20559;-70
2022/12/03 10:10:27;;;;;;;46.92;16.67;;;;;;;1.09;88.26;102084.56;5036152;28;20168;-70
2022/12/03 10:12:53;;;;;;;35.53;13.10;;;;;;;1.10;87.98;102080.09;4995439;28;20120;-69
2022/12/03 10:15:21;;;;;;;43.67;14.02;;;;;;;1.09;88.22;102083.69;5027730;28;20595;-70
2022/12/03 10:17:49;;;;;;;40.72;14.00;;;;;;;1.08;87.91;102081.94;5024264;28;20028;-69
2022/12/03 10:20:17;;;;;;;37.42;13.63;;;;;;;1.09;88.63;102072.97;5027438;28;20025;-71
2022/12/03 10:22:44;;;;;;;40.47;13.82;;;;;;;1.09;88.27;102078.34;4993363;28;20065;-70
2022/12/03 10:25:16;;;;;;;44.63;15.80;;;;;;;1.09;88.35;102071.19;5030629;28;20068;-69
2022/12/03 10:27:42;;;;;;;44.45;16.02;;;;;;;1.10;88.85;102066.69;5028047;28;20037;-71
2022/12/03 10:30:18;;;;;;;49.38;16.27;;;;;;;1.09;88.64;102063.13;5027473;28;20074;-71
2022/12/03 10:32:46;;;;;;;37.92;13.93;;;;;;;1.09;89.11;102067.63;5009568;28;20037;-71
2022/12/03 10:35:22;;;;;;;42.55;15.23;;;;;;;1.09;89.18;102057.78;5027664;28;20179;-70
2022/12/03 10:38:17;;;;;;;41.80;15.27;;;;;;;1.09;89.17;102055.09;5009565;28;20036;-70
2022/12/03 10:40:43;;;;;;;29.70;12.15;;;;;;;1.11;87.72;102052.38;5008242;28;20053;-70
2022/12/03 10:43:20;;;;;;;35.78;14.00;;;;;;;1.11;88.60;102047.91;5027401;28;20052;-70
2022/12/03 10:46:08;;;;;;;35.25;14.25;;;;;;;1.11;88.06;102044.34;5027293;28;20064;-69
2022/12/03 10:48:33;;;;;;;33.08;12.35;;;;;;;1.08;87.65;102037.25;5027987;28;20083;-69
2022/12/03 10:51:03;;;;;;;32.00;11.15;;;;;;;1.07;88.13;102046.19;5026771;28;20025;-69
2022/12/03 10:53:32;;;;;;;37.58;13.45;;;;;;;1.06;87.50;102041.72;5027968;28;20483;-70
2022/12/03 10:56:00;;;;;;;34.72;14.68;;;;;;;1.03;87.81;102036.44;4992563;28;20037;-70
2022/12/03 10:58:44;;;;;;;42.55;13.73;;;;;;;1.01;87.37;102033.75;5027210;28;20129;-69
2022/12/03 11:01:16;;;;;;;32.38;12.93;;;;;;;1.04;86.36;102026.59;5027641;28;20095;-70
2022/12/03 11:03:42;;;;;;;34.72;14.52;;;;;;;1.08;86.07;102018.50;5009337;28;20056;-70
2022/12/03 11:06:13;;;;;;;28.05;11.85;;;;;;;1.15;85.16;102017.47;5025458;28;20033;-70
2022/12/03 11:08:42;;;;;;;24.92;11.38;;;;;;;1.24;85.87;102019.16;5009079;28;20420;-72
2022/12/03 11:11:18;;;;;;;40.00;12.70;;;;;;;1.30;85.53;102026.19;5026914;28;20057;-70
2022/12/03 11:13:47;;;;;;;33.58;11.75;;;;;;;1.29;85.13;102022.63;5026897;28;20037;-69
2022/12/03 11:16:33;;;;;;;30.63;11.95;;;;;;;1.28;85.34;102010.16;5026828;28;20029;-70
2022/12/03 11:19:00;;;;;;;24.98;10.77;;;;;;;1.34;84.83;102009.16;5008779;28;20059;-70
2022/12/03 11:21:25;;;;;;;29.77;12.57;;;;;;;1.33;84.87;102007.41;5027023;28;20025;-70
2022/12/03 11:23:52;;;;;;;26.45;10.20;;;;;;;1.32;84.39;102013.69;5010056;28;20629;-70
2022/12/03 11:26:37;;;;;;;28.33;11.95;;;;;;;1.27;84.66;102013.75;5008591;28;20095;-70
2022/12/03 11:29:11;;;;;;;27.08;11.45;;;;;;;1.26;84.89;102010.19;5009270;28;20052;-69
2022/12/03 11:31:39;;;;;;;28.27;12.30;;;;;;;1.25;85.09;101999.47;5028076;28;20047;-71
2022/12/03 11:34:19;;;;;;;29.05;12.35;;;;;;;1.26;85.07;101998.59;5026909;28;20160;-69